Impacts METAR Board INFO
IDs:

KSAN - San Diego Intl Arpt, CA, US

Updated at: 2301 UTC 21 Nov 2017
Potential Impact None Slight Moderate High
Time21/11Z 21/12Z 21/13Z 21/14Z 21/15Z 21/16Z 21/17Z 21/18Z 21/19Z 21/20Z 21/21Z 21/22Z 21/23Z
VIS10 10 10 10 10 10 10 10 10 10 10 10 10
CIG200 200 -- -- -- -- -- -- -- -- -- -- --
CoverBKNBKNSCTCLRSCTSCTSCTSCTSCTSCTSCTSCTSCT
FltCatVFRVFRVFRVFRVFRVFRVFRVFRVFRVFRVFRVFRVFR
WX--------------------------
WDir0034003500310290310310300310300
WSpd0 0 3 0 3 0 4 5 5 5 7 8 9
WGst-- -- -- -- -- -- -- -- -- -- -- -- --
Raw hourly METARs
KSAN 211051Z 00000KT 10SM BKN200 14/06 A3003 RMK AO2 SLP167 T01390056 $
KSAN 211151Z 00000KT 10SM BKN200 14/05 A3002 RMK AO2 SLP166 T01390050 10167 20139 58001 $
KSAN 211251Z 34003KT 10SM SCT200 14/04 A3002 RMK AO2 SLP166 T01390039 $
KSAN 211351Z 00000KT 10SM CLR 14/04 A3003 RMK AO2 SLP168 T01440039 $
KSAN 211451Z 35003KT 10SM FEW150 FEW200 SCT250 14/04 A3004 RMK AO2 SLP173 T01440039 53007 $
KSAN 211551Z 00000KT 10SM FEW200 SCT250 17/04 A3006 RMK AO2 SLP179 T01670044 $
KSAN 211651Z 31004KT 10SM FEW200 SCT250 21/03 A3008 RMK AO2 SLP186 T02060028 $
KSAN 211751Z 29005KT 10SM FEW200 SCT250 24/04 A3008 RMK AO2 SLP187 T02390039 10239 20133 51014 $
KSAN 211851Z 31005KT 10SM FEW200 SCT250 26/01 A3007 RMK AO2 SLP181 T02610011 $
KSAN 211951Z 31005KT 10SM FEW200 SCT250 26/03 A3005 RMK AO2 SLP174 T02560028 $
KSAN 212051Z 30007KT 10SM SCT200 SCT250 27/02 A3003 RMK AO2 SLP167 T02720017 58019 $
KSAN 212151Z 31008KT 10SM FEW200 SCT250 26/04 A3002 RMK AO2 SLP164 T02560039 $
KSAN 212251Z 30009KT 10SM FEW200 SCT250 26/06 A3001 RMK AO2 SLP163 T02610056 $